Time;durP1;ratioP1;P1;durP2;ratioP2;P2;SDS_P1;SDS_P2;PMS_P1;PMS_P2;Temp;Humidity;BMP_temperature;BMP_pressure;BME280_temperature;BME280_humidity;BME280_pressure;Samples;Min_cycle;Max_cycle;Signal;HPM_P1;HPM_P2
2024/02/29 00:00:06;;;;;;;11.93;2.13;;;;;;;10.54;100.00;100886.31;5056183;28;20047;-68
2024/02/29 00:02:31;;;;;;;8.15;2.28;;;;;;;10.51;100.00;100887.41;5054780;28;20482;-68
2024/02/29 00:04:57;;;;;;;18.80;2.45;;;;;;;10.47;100.00;100878.22;5053927;28;20043;-68
2024/02/29 00:07:22;;;;;;;6.97;2.03;;;;;;;10.45;100.00;100872.31;5051267;28;20044;-68
2024/02/29 00:09:48;;;;;;;10.98;2.55;;;;;;;10.41;100.00;100877.91;5051346;28;20033;-67
2024/02/29 00:12:13;;;;;;;12.05;1.92;;;;;;;10.37;100.00;100873.97;5053183;28;20127;-68
2024/02/29 00:14:39;;;;;;;8.73;2.13;;;;;;;10.33;100.00;100872.56;5058530;28;20128;-68
2024/02/29 00:17:05;;;;;;;11.32;2.15;;;;;;;10.32;100.00;100871.75;5057856;28;20126;-67
2024/02/29 00:19:32;;;;;;;10.63;3.00;;;;;;;10.43;100.00;100858.59;5059110;28;20024;-68
2024/02/29 00:21:57;;;;;;;5.45;1.63;;;;;;;10.45;100.00;100861.88;5067618;28;20043;-67
2024/02/29 00:24:22;;;;;;;11.80;2.45;;;;;;;10.41;100.00;100860.50;5070364;28;20032;-67
2024/02/29 00:26:48;;;;;;;6.35;1.90;;;;;;;10.35;100.00;100855.03;5071574;28;20074;-67
2024/02/29 00:29:14;;;;;;;6.53;1.65;;;;;;;10.29;100.00;100849.41;5055055;28;20051;-68
2024/02/29 00:31:46;;;;;;;5.00;1.67;;;;;;;10.28;100.00;100834.72;5057356;28;20025;-68
2024/02/29 00:34:12;;;;;;;15.30;1.05;;;;;;;10.27;100.00;100832.25;5050244;28;20623;-67
2024/02/29 00:36:38;;;;;;;7.72;2.05;;;;;;;10.33;100.00;100836.94;5053062;28;20032;-68
2024/02/29 00:39:03;;;;;;;8.68;1.23;;;;;;;10.33;100.00;100838.72;5049612;28;20071;-67
2024/02/29 00:41:29;;;;;;;6.68;1.52;;;;;;;10.32;100.00;100839.66;5049838;28;20033;-67
2024/02/29 00:43:54;;;;;;;7.53;1.33;;;;;;;10.30;100.00;100843.22;5055011;28;20028;-68
2024/02/29 00:46:20;;;;;;;9.25;1.65;;;;;;;10.30;100.00;100832.00;5058274;28;20044;-67
2024/02/29 00:48:45;;;;;;;5.85;1.25;;;;;;;10.30;100.00;100830.22;5049269;28;20039;-68
2024/02/29 00:51:11;;;;;;;6.78;1.25;;;;;;;10.27;100.00;100814.03;5052900;28;20501;-68
2024/02/29 00:53:36;;;;;;;7.53;1.83;;;;;;;10.23;100.00;100821.28;5052251;28;20063;-68
2024/02/29 00:56:02;;;;;;;5.82;1.52;;;;;;;10.21;100.00;100817.16;5048728;28;21729;-68
2024/02/29 00:58:27;;;;;;;9.10;1.05;;;;;;;10.19;100.00;100811.22;5050306;28;20063;-68
2024/02/29 01:00:54;;;;;;;14.38;1.33;;;;;;;10.16;100.00;100809.72;5052066;28;20040;-67
2024/02/29 01:03:19;;;;;;;11.18;1.73;;;;;;;10.36;100.00;100810.63;5054038;28;20067;-68
2024/02/29 01:05:45;;;;;;;3.80;1.08;;;;;;;10.51;100.00;100809.25;5065179;28;20116;-67
2024/02/29 01:08:10;;;;;;;5.75;0.80;;;;;;;10.92;100.00;100802.94;5049621;28;20437;-67
2024/02/29 01:10:36;;;;;;;11.82;1.60;;;;;;;10.96;100.00;100796.50;5049620;28;20078;-68
2024/02/29 01:13:01;;;;;;;8.48;1.05;;;;;;;10.83;100.00;100792.53;5048915;28;20060;-67
2024/02/29 01:15:26;;;;;;;7.53;1.08;;;;;;;10.72;100.00;100785.69;5049456;28;20184;-68
2024/02/29 01:17:52;;;;;;;5.18;1.00;;;;;;;10.68;100.00;100788.69;5052045;28;20051;-67
2024/02/29 01:20:18;;;;;;;9.10;1.02;;;;;;;10.63;100.00;100789.94;5058202;28;20024;-67
2024/02/29 01:22:43;;;;;;;9.20;0.95;;;;;;;10.59;100.00;100795.53;5063676;28;20032;-67
2024/02/29 01:25:10;;;;;;;7.75;0.88;;;;;;;10.61;100.00;100788.41;5048078;28;20588;-68
2024/02/29 01:27:36;;;;;;;6.28;0.90;;;;;;;10.62;100.00;100785.69;5050221;28;20595;-67
2024/02/29 01:30:02;;;;;;;7.88;1.02;;;;;;;10.64;100.00;100783.75;5056184;28;20051;-67
2024/02/29 01:32:27;;;;;;;7.88;1.13;;;;;;;10.61;100.00;100785.81;5049224;28;20052;-67
2024/02/29 01:34:53;;;;;;;3.63;0.70;;;;;;;10.56;100.00;100778.41;5048773;28;20124;-67
2024/02/29 01:37:18;;;;;;;3.22;0.88;;;;;;;10.51;100.00;100777.97;5051633;28;20123;-67
2024/02/29 01:39:44;;;;;;;7.47;0.82;;;;;;;10.47;100.00;100775.78;5049226;28;20040;-67
2024/02/29 01:42:13;;;;;;;5.03;0.70;;;;;;;10.52;100.00;100778.81;5051615;28;20044;-67
2024/02/29 01:44:58;;;;;;;9.13;1.15;;;;;;;10.49;100.00;100776.47;5052329;28;20025;-68
2024/02/29 01:47:25;;;;;;;6.20;0.90;;;;;;;10.45;100.00;100775.91;5049648;28;20093;-67
2024/02/29 01:49:57;;;;;;;9.25;0.95;;;;;;;10.39;100.00;100771.28;5049696;28;20079;-67
2024/02/29 01:52:25;;;;;;;6.13;0.93;;;;;;;10.36;100.00;100774.16;5051896;28;20040;-67
2024/02/29 01:54:50;;;;;;;8.80;1.10;;;;;;;10.33;100.00;100774.44;5050803;28;20025;-67
2024/02/29 01:57:16;;;;;;;6.20;1.17;;;;;;;10.27;100.00;100765.38;5049351;28;20125;-68
2024/02/29 01:59:42;;;;;;;3.13;0.63;;;;;;;10.24;100.00;100770.84;5048618;28;20071;-67
2024/02/29 02:02:08;;;;;;;13.57;1.15;;;;;;;10.23;100.00;100769.19;5050423;28;20486;-68
2024/02/29 02:04:33;;;;;;;4.65;1.08;;;;;;;10.29;100.00;100760.84;5052193;28;20041;-68
2024/02/29 02:07:01;;;;;;;5.55;1.20;;;;;;;10.43;100.00;100758.78;5048124;28;20076;-68
2024/02/29 02:09:27;;;;;;;5.32;1.00;;;;;;;10.44;100.00;100757.81;5052930;28;20040;-68
2024/02/29 02:11:52;;;;;;;10.68;1.75;;;;;;;10.39;100.00;100760.88;5049059;28;20426;-67
2024/02/29 02:14:18;;;;;;;4.68;1.20;;;;;;;10.34;100.00;100751.81;5050339;28;20167;-68
2024/02/29 02:16:43;;;;;;;4.95;1.25;;;;;;;10.29;100.00;100750.44;5055167;28;20127;-68
2024/02/29 02:19:12;;;;;;;4.35;1.00;;;;;;;10.25;100.00;100746.47;5056412;28;20032;-67
2024/02/29 02:21:39;;;;;;;7.72;1.27;;;;;;;10.22;100.00;100746.72;5052320;28;20036;-68
2024/02/29 02:24:05;;;;;;;10.35;1.20;;;;;;;10.16;100.00;100731.59;5050855;28;20033;-67
2024/02/29 02:26:31;;;;;;;5.53;1.08;;;;;;;10.10;100.00;100721.72;5048693;28;20070;-67
2024/02/29 02:28:56;;;;;;;6.00;1.13;;;;;;;10.22;100.00;100718.06;5051850;28;20147;-68
2024/02/29 02:31:22;;;;;;;9.32;1.70;;;;;;;10.34;100.00;100728.38;5053430;28;20561;-68
2024/02/29 02:33:47;;;;;;;6.38;1.05;;;;;;;10.37;100.00;100722.88;5049783;28;20573;-67
2024/02/29 02:36:12;;;;;;;6.35;1.20;;;;;;;10.39;100.00;100726.19;5047601;28;20075;-67
2024/02/29 02:38:38;;;;;;;4.28;0.73;;;;;;;10.39;100.00;100720.97;5050241;28;20024;-67
2024/02/29 02:41:03;;;;;;;6.90;1.52;;;;;;;10.66;100.00;100715.06;5048073;28;20056;-67
2024/02/29 02:43:29;;;;;;;6.68;1.20;;;;;;;11.03;100.00;100717.72;5055332;28;20112;-68
2024/02/29 02:45:55;;;;;;;10.18;0.85;;;;;;;11.62;96.43;100704.31;5050267;28;20123;-68
2024/02/29 02:48:20;;;;;;;6.53;0.70;;;;;;;11.97;93.90;100695.75;5047329;28;20524;-67
2024/02/29 02:50:46;;;;;;;2.50;0.70;;;;;;;11.72;98.59;100699.03;5047427;28;20036;-67
2024/02/29 02:53:12;;;;;;;2.97;0.70;;;;;;;11.36;100.00;100695.50;5047453;28;20043;-68
2024/02/29 02:55:37;;;;;;;6.05;0.60;;;;;;;11.04;100.00;100695.91;5050977;28;20059;-67
2024/02/29 02:58:03;;;;;;;5.93;0.93;;;;;;;10.95;100.00;100693.16;5047634;28;20048;-67
2024/02/29 03:00:28;;;;;;;12.00;0.60;;;;;;;11.53;96.66;100684.28;5051303;28;20032;-68
2024/02/29 03:02:53;;;;;;;8.75;0.43;;;;;;;11.95;88.73;100684.63;5049044;28;20039;-67
2024/02/29 03:05:20;;;;;;;7.15;0.40;;;;;;;12.37;83.53;100691.84;5051134;28;20479;-68
2024/02/29 03:07:45;;;;;;;4.38;0.68;;;;;;;12.65;84.76;100689.97;5047946;28;20040;-68
2024/02/29 03:10:11;;;;;;;7.70;0.93;;;;;;;12.82;79.37;100686.47;5050245;28;20032;-68
2024/02/29 03:12:37;;;;;;;4.88;0.60;;;;;;;12.84;82.18;100680.13;5047700;28;20528;-67
2024/02/29 03:15:05;;;;;;;2.22;0.40;;;;;;;12.72;85.20;100686.59;5060735;28;20078;-67
2024/02/29 03:17:30;;;;;;;5.60;0.50;;;;;;;12.65;87.08;100682.13;5051095;28;20028;-68
2024/02/29 03:19:56;;;;;;;5.90;0.75;;;;;;;12.46;88.54;100677.88;5062046;28;20021;-67
2024/02/29 03:22:21;;;;;;;4.35;0.63;;;;;;;12.36;90.40;100685.00;5054722;28;20028;-68
2024/02/29 03:24:47;;;;;;;7.75;0.60;;;;;;;12.06;92.19;100675.75;5049481;28;20032;-68
2024/02/29 03:27:13;;;;;;;5.72;0.40;;;;;;;12.45;86.11;100673.63;5053416;28;20036;-68
2024/02/29 03:29:38;;;;;;;10.00;0.93;;;;;;;12.44;82.77;100672.00;5056752;28;20735;-67
2024/02/29 03:32:04;;;;;;;9.77;0.70;;;;;;;12.09;88.47;100673.66;5057698;28;20029;-68
2024/02/29 03:34:30;;;;;;;12.15;0.80;;;;;;;11.75;91.43;100664.81;5051397;28;20444;-68
2024/02/29 03:36:55;;;;;;;9.30;0.90;;;;;;;11.43;92.68;100670.47;5050827;28;20060;-67
2024/02/29 03:39:21;;;;;;;5.85;0.70;;;;;;;11.20;95.20;100670.03;5050212;28;20032;-68
2024/02/29 03:41:46;;;;;;;8.95;0.95;;;;;;;11.00;96.94;100668.47;5060983;28;20088;-68
2024/02/29 03:44:12;;;;;;;10.30;1.15;;;;;;;10.86;98.88;100667.16;5056223;28;20028;-68
2024/02/29 03:46:37;;;;;;;12.90;0.80;;;;;;;10.74;99.81;100674.31;5053309;28;20947;-67
2024/02/29 03:49:03;;;;;;;6.22;0.70;;;;;;;10.62;100.00;100678.03;5049489;28;20040;-67
2024/02/29 03:51:28;;;;;;;10.43;1.05;;;;;;;10.54;99.91;100667.47;5050039;28;20078;-68
2024/02/29 03:53:54;;;;;;;12.32;1.55;;;;;;;10.55;100.00;100669.13;5064486;28;20037;-68
2024/02/29 03:56:20;;;;;;;6.55;0.70;;;;;;;10.99;91.70;100659.81;5057159;28;20028;-68
2024/02/29 03:58:46;;;;;;;8.27;0.60;;;;;;;11.90;85.86;100664.16;5052173;28;20108;-67
2024/02/29 04:01:11;;;;;;;5.50;0.63;;;;;;;12.22;83.20;100668.06;5064967;28;20099;-67
2024/02/29 04:03:40;;;;;;;9.90;0.80;;;;;;;12.42;82.34;100659.06;5049862;28;20173;-67
2024/02/29 04:06:06;;;;;;;6.15;0.60;;;;;;;12.56;80.12;100666.38;5053286;28;20037;-68
2024/02/29 04:08:32;;;;;;;6.40;0.93;;;;;;;12.73;79.66;100663.88;5050318;28;20036;-67
2024/02/29 04:10:58;;;;;;;7.40;0.70;;;;;;;12.88;80.03;100660.53;5050864;28;20036;-67
2024/02/29 04:13:24;;;;;;;5.80;0.63;;;;;;;12.89;78.88;100664.78;5054860;28;20321;-67
2024/02/29 04:15:50;;;;;;;11.18;0.73;;;;;;;12.97;77.02;100664.03;5066949;28;20501;-68
2024/02/29 04:18:16;;;;;;;2.75;0.50;;;;;;;13.21;76.92;100658.13;5057795;28;20509;-68
2024/02/29 04:20:41;;;;;;;4.57;1.00;;;;;;;13.28;76.57;100653.88;5051592;28;20033;-68
2024/02/29 04:23:07;;;;;;;4.18;0.35;;;;;;;13.35;73.22;100652.28;5057711;28;20489;-68
2024/02/29 04:25:32;;;;;;;9.73;0.80;;;;;;;13.31;75.45;100650.13;5052808;28;20033;-67
2024/02/29 04:27:58;;;;;;;5.65;0.80;;;;;;;13.19;73.95;100652.25;5054280;28;20036;-67
2024/02/29 04:30:23;;;;;;;12.00;0.65;;;;;;;13.12;77.12;100641.53;5057688;28;20075;-68
2024/02/29 04:32:49;;;;;;;13.50;0.73;;;;;;;13.14;75.75;100657.09;5050478;28;20040;-68
2024/02/29 04:35:14;;;;;;;4.38;0.60;;;;;;;13.25;76.80;100646.34;5049349;28;20145;-67
2024/02/29 04:37:40;;;;;;;6.90;0.82;;;;;;;13.28;78.14;100648.66;5050502;28;20024;-68
2024/02/29 04:40:07;;;;;;;5.70;0.60;;;;;;;13.13;80.13;100648.41;5049751;28;21297;-68
2024/02/29 04:42:33;;;;;;;5.00;0.57;;;;;;;12.90;81.91;100645.50;5052973;28;20048;-68
2024/02/29 04:44:58;;;;;;;6.35;0.47;;;;;;;12.78;79.54;100649.34;5055963;28;20043;-67
2024/02/29 04:47:25;;;;;;;6.05;0.50;;;;;;;12.71;77.98;100643.13;5049456;28;20054;-68
2024/02/29 04:49:50;;;;;;;9.10;0.70;;;;;;;12.64;83.36;100639.47;5050283;28;20043;-68
2024/02/29 04:52:17;;;;;;;8.10;0.63;;;;;;;12.59;83.58;100652.19;5050035;28;20041;-68
2024/02/29 04:54:42;;;;;;;9.15;0.63;;;;;;;12.56;81.34;100650.69;5050346;28;20724;-68
2024/02/29 04:57:08;;;;;;;7.07;0.90;;;;;;;12.54;84.60;100646.59;5051607;28;20045;-68
2024/02/29 04:59:33;;;;;;;10.18;1.05;;;;;;;12.26;86.79;100651.94;5049741;28;20040;-67
2024/02/29 05:01:59;;;;;;;4.47;0.60;;;;;;;12.28;84.43;100660.47;5048198;28;20390;-68
2024/02/29 05:04:25;;;;;;;6.97;0.90;;;;;;;12.55;79.21;100658.69;5047783;28;20048;-67
2024/02/29 05:06:50;;;;;;;9.63;0.50;;;;;;;12.64;83.28;100660.41;5050534;28;20595;-67
2024/02/29 05:09:16;;;;;;;2.85;0.93;;;;;;;12.38;85.42;100660.34;5047518;28;20477;-68
2024/02/29 05:11:42;;;;;;;4.05;1.00;;;;;;;12.08;87.85;100666.81;5049060;28;20040;-68
2024/02/29 05:14:08;;;;;;;4.97;0.70;;;;;;;11.84;89.90;100658.72;5058188;28;20030;-67
2024/02/29 05:16:33;;;;;;;6.38;0.60;;;;;;;11.62;91.71;100665.97;5057078;28;20059;-68
2024/02/29 05:18:59;;;;;;;8.63;1.08;;;;;;;11.47;92.74;100667.44;5052622;28;20025;-68
2024/02/29 05:21:24;;;;;;;9.98;0.93;;;;;;;11.35;87.24;100660.75;5049894;28;20064;-67
2024/02/29 05:23:50;;;;;;;6.93;0.73;;;;;;;11.46;91.36;100655.34;5065789;28;20035;-68
2024/02/29 05:26:16;;;;;;;5.55;0.52;;;;;;;12.22;81.25;100665.47;5053616;28;20028;-68
2024/02/29 05:28:41;;;;;;;9.82;1.10;;;;;;;12.75;78.15;100659.31;5053684;28;20121;-68
2024/02/29 05:31:08;;;;;;;2.63;0.47;;;;;;;12.96;78.09;100662.38;5056516;28;20079;-68
2024/02/29 05:33:33;;;;;;;8.38;0.82;;;;;;;13.14;75.71;100665.75;5048390;28;20090;-68
2024/02/29 05:35:59;;;;;;;6.20;0.70;;;;;;;12.99;76.59;100658.63;5046215;28;20037;-68
2024/02/29 05:38:25;;;;;;;6.97;0.70;;;;;;;13.02;78.69;100664.38;5047483;28;20078;-68
2024/02/29 05:40:51;;;;;;;7.05;0.80;;;;;;;13.05;78.19;100661.44;5049185;28;20028;-68
2024/02/29 05:43:16;;;;;;;3.72;1.05;;;;;;;13.10;76.02;100663.59;5056518;28;20035;-68
2024/02/29 05:45:42;;;;;;;7.32;1.27;;;;;;;13.12;79.84;100664.28;5068375;28;20029;-67
2024/02/29 05:48:07;;;;;;;5.47;0.57;;;;;;;12.74;78.71;100658.50;5049008;28;20040;-68
2024/02/29 05:50:33;;;;;;;4.53;1.30;;;;;;;12.75;76.10;100659.31;5047925;28;20148;-68
2024/02/29 05:52:58;;;;;;;6.13;0.80;;;;;;;13.10;75.84;100663.59;5048544;28;20028;-68
2024/02/29 05:55:24;;;;;;;6.47;0.68;;;;;;;12.89;79.98;100664.78;5049804;28;20035;-67
2024/02/29 05:57:50;;;;;;;5.40;1.20;;;;;;;12.43;84.98;100676.41;5047423;28;20125;-67
2024/02/29 06:00:17;;;;;;;5.88;0.85;;;;;;;12.03;88.32;100669.03;5058536;28;20067;-67
2024/02/29 06:02:43;;;;;;;7.70;1.20;;;;;;;11.74;90.20;100669.22;5049276;28;20040;-67
2024/02/29 06:05:09;;;;;;;7.15;0.50;;;;;;;11.66;90.73;100665.69;5047320;28;20093;-67
2024/02/29 06:07:36;;;;;;;4.05;0.80;;;;;;;11.61;91.88;100677.38;5059040;28;20033;-67
2024/02/29 06:10:02;;;;;;;6.53;0.60;;;;;;;11.54;92.83;100673.72;5073378;28;20039;-67
2024/02/29 06:12:30;;;;;;;13.25;1.10;;;;;;;11.49;93.87;100686.38;5070746;28;20067;-68
2024/02/29 06:14:55;;;;;;;11.68;0.70;;;;;;;11.42;94.79;100685.31;5070304;28;20116;-67
2024/02/29 06:17:21;;;;;;;5.90;0.85;;;;;;;11.32;95.10;100689.78;5069107;28;20845;-67
2024/02/29 06:19:46;;;;;;;7.40;0.80;;;;;;;11.29;95.42;100690.06;5070098;28;20024;-67
2024/02/29 06:22:12;;;;;;;4.05;1.17;;;;;;;11.24;96.22;100693.09;5068784;28;20421;-68
2024/02/29 06:24:37;;;;;;;13.75;1.35;;;;;;;11.22;96.23;100694.19;5068613;28;20032;-67
2024/02/29 06:27:03;;;;;;;8.88;1.00;;;;;;;11.25;96.00;100697.34;5069008;28;20036;-67
2024/02/29 06:29:28;;;;;;;7.25;1.30;;;;;;;11.28;96.78;100698.84;5068209;28;20405;-68
2024/02/29 06:31:54;;;;;;;7.65;0.98;;;;;;;11.27;96.90;100705.84;5075669;28;20055;-67
2024/02/29 06:34:19;;;;;;;6.20;0.80;;;;;;;11.26;97.92;100708.59;5068628;28;20047;-67
2024/02/29 06:36:45;;;;;;;11.80;1.50;;;;;;;11.27;98.62;100707.63;5070309;28;20119;-68
2024/02/29 06:39:11;;;;;;;7.65;0.90;;;;;;;11.26;98.54;100708.59;5067149;28;20363;-67
2024/02/29 06:41:38;;;;;;;16.05;1.70;;;;;;;11.30;99.17;100707.34;5069511;28;20425;-67
2024/02/29 06:44:06;;;;;;;15.10;1.58;;;;;;;11.36;99.18;100696.31;5068959;28;20037;-67
2024/02/29 06:46:32;;;;;;;12.48;1.33;;;;;;;11.54;96.73;100705.03;5069031;28;20051;-67
2024/02/29 06:49:01;;;;;;;9.13;1.70;;;;;;;11.61;98.68;100711.31;5068913;28;20040;-68
2024/02/29 06:51:30;;;;;;;9.50;1.65;;;;;;;11.57;98.05;100712.56;5069168;28;20563;-67
2024/02/29 06:53:56;;;;;;;22.88;2.45;;;;;;;11.59;98.95;100708.03;5065579;28;20040;-67
2024/02/29 06:56:22;;;;;;;16.08;2.35;;;;;;;11.60;99.75;100714.91;5064182;28;20041;-67
2024/02/29 06:58:48;;;;;;;10.00;1.98;;;;;;;11.64;100.00;100715.44;5075876;28;20445;-68
2024/02/29 07:01:13;;;;;;;10.77;1.92;;;;;;;11.70;100.00;100707.03;5073234;28;20035;-67
2024/02/29 07:03:39;;;;;;;12.90;2.15;;;;;;;11.76;100.00;100714.28;5073121;28;20401;-67
2024/02/29 07:06:05;;;;;;;10.80;1.80;;;;;;;11.82;100.00;100710.25;5071668;28;20036;-67
2024/02/29 07:08:34;;;;;;;8.57;2.03;;;;;;;11.82;100.00;100718.09;5071444;28;20500;-66
2024/02/29 07:11:00;;;;;;;14.43;2.60;;;;;;;11.80;100.00;100707.00;5071406;28;20040;-66
2024/02/29 07:13:26;;;;;;;13.68;2.22;;;;;;;11.77;100.00;100702.88;5072373;28;20104;-67
2024/02/29 07:15:51;;;;;;;12.45;1.80;;;;;;;11.73;100.00;100708.50;5072604;28;20439;-67
2024/02/29 07:18:17;;;;;;;6.20;1.45;;;;;;;11.81;100.00;100706.84;5071740;28;20158;-67
2024/02/29 07:20:42;;;;;;;10.65;3.20;;;;;;;11.86;99.99;100711.59;5072118;28;20158;-67
2024/02/29 07:23:10;;;;;;;13.32;2.63;;;;;;;11.88;100.00;100702.66;5068702;28;20078;-67
2024/02/29 07:25:36;;;;;;;9.57;1.67;;;;;;;11.89;100.00;100704.31;5073544;28;20472;-67
2024/02/29 07:28:03;;;;;;;19.80;2.58;;;;;;;11.92;100.00;100713.63;5074479;28;20798;-67
2024/02/29 07:30:30;;;;;;;11.40;1.75;;;;;;;11.98;100.00;100710.44;5069725;28;20393;-67
2024/02/29 07:32:57;;;;;;;14.77;2.60;;;;;;;11.97;100.00;100703.56;5072413;28;20091;-67
2024/02/29 07:35:23;;;;;;;9.73;1.83;;;;;;;11.98;100.00;100702.59;5072003;28;20055;-67
2024/02/29 07:37:49;;;;;;;6.78;1.73;;;;;;;11.97;100.00;100706.19;5072248;28;20384;-67
2024/02/29 07:40:14;;;;;;;15.60;2.38;;;;;;;11.97;100.00;100700.97;5072043;28;20028;-67
2024/02/29 07:42:40;;;;;;;9.98;1.67;;;;;;;12.01;100.00;100710.16;5070552;28;20016;-67
2024/02/29 07:45:07;;;;;;;8.95;2.22;;;;;;;12.07;100.00;100706.94;5071517;28;20036;-67
2024/02/29 07:47:32;;;;;;;7.57;1.60;;;;;;;12.12;100.00;100707.31;5070011;28;20044;-68
2024/02/29 07:49:58;;;;;;;8.77;1.75;;;;;;;12.25;100.00;100705.16;5072338;28;20157;-67
2024/02/29 07:52:23;;;;;;;5.90;1.75;;;;;;;12.33;100.00;100707.00;5068932;28;20145;-67
2024/02/29 07:54:49;;;;;;;9.57;1.95;;;;;;;12.38;100.00;100707.38;5069299;28;20035;-67
2024/02/29 07:57:15;;;;;;;8.38;2.40;;;;;;;12.46;99.21;100706.63;5069461;28;20056;-67
2024/02/29 07:59:40;;;;;;;10.05;1.88;;;;;;;12.55;100.00;100706.56;5072806;28;20119;-67
2024/02/29 08:02:06;;;;;;;9.57;2.63;;;;;;;12.63;100.00;100714.47;5071361;28;20106;-66
2024/02/29 08:04:32;;;;;;;6.00;1.63;;;;;;;12.73;100.00;100701.31;5072066;28;20047;-66
2024/02/29 08:06:57;;;;;;;11.32;1.85;;;;;;;12.83;100.00;100707.25;5069788;28;20059;-65
2024/02/29 08:09:26;;;;;;;8.32;2.00;;;;;;;12.94;100.00;100700.94;5067330;28;20055;-65
2024/02/29 08:11:51;;;;;;;23.92;2.92;;;;;;;13.09;99.66;100701.19;5067819;28;20033;-65
2024/02/29 08:14:16;;;;;;;9.48;2.40;;;;;;;13.15;99.23;100700.59;5069669;28;20028;-66
2024/02/29 08:16:42;;;;;;;10.43;3.00;;;;;;;13.21;99.52;100692.16;5067876;28;20032;-66
2024/02/29 08:19:07;;;;;;;19.67;2.47;;;;;;;13.23;97.97;100700.66;5068848;28;20036;-65
2024/02/29 08:21:33;;;;;;;7.15;2.40;;;;;;;13.21;97.93;100697.38;5068997;28;20040;-68
2024/02/29 08:23:59;;;;;;;8.90;1.98;;;;;;;13.28;97.46;100706.22;5070491;28;20028;-67
2024/02/29 08:26:25;;;;;;;8.68;2.40;;;;;;;13.35;97.96;100698.56;5053817;28;20106;-70
2024/02/29 08:28:51;;;;;;;9.00;2.53;;;;;;;13.33;94.23;100701.34;5048451;28;20055;-70
2024/02/29 08:31:16;;;;;;;11.30;2.38;;;;;;;13.29;84.35;100705.25;5072117;28;20499;-71
2024/02/29 08:33:41;;;;;;;7.75;1.88;;;;;;;13.31;90.38;100692.00;5067993;28;20028;-69
2024/02/29 08:36:07;;;;;;;5.75;1.92;;;;;;;13.34;93.05;100702.97;5068399;28;20044;-66
2024/02/29 08:38:36;;;;;;;6.13;2.13;;;;;;;13.33;94.76;100690.88;5071587;28;20032;-68
2024/02/29 08:41:02;;;;;;;8.15;2.33;;;;;;;13.28;95.71;100695.75;5066546;28;20036;-66
2024/02/29 08:43:28;;;;;;;9.27;2.38;;;;;;;13.24;96.51;100697.84;5069778;28;20025;-67
2024/02/29 08:45:53;;;;;;;10.50;2.08;;;;;;;13.19;97.37;100692.31;5071381;28;20038;-66
2024/02/29 08:48:19;;;;;;;9.60;3.22;;;;;;;13.16;98.04;100694.41;5071261;28;20029;-66
2024/02/29 08:50:44;;;;;;;14.95;3.33;;;;;;;13.15;98.65;100685.72;5076476;28;20126;-67
2024/02/29 08:53:10;;;;;;;9.13;2.80;;;;;;;13.18;98.98;100687.22;5067202;28;20145;-67
2024/02/29 08:55:36;;;;;;;8.40;2.90;;;;;;;13.18;98.75;100677.59;5070302;28;20040;-65
2024/02/29 08:58:01;;;;;;;11.90;2.90;;;;;;;13.27;98.78;100678.41;5070323;28;20102;-66
2024/02/29 09:00:27;;;;;;;12.23;3.47;;;;;;;13.36;98.24;100685.31;5071216;28;20031;-65
2024/02/29 09:02:52;;;;;;;7.57;3.30;;;;;;;13.49;97.52;100680.47;5070396;28;20033;-65
2024/02/29 09:05:18;;;;;;;7.18;2.85;;;;;;;13.60;97.12;100682.81;5069780;28;20024;-69
2024/02/29 09:07:43;;;;;;;7.57;3.58;;;;;;;13.74;96.80;100677.91;5074647;28;20062;-69
2024/02/29 09:10:09;;;;;;;12.63;2.75;;;;;;;13.82;95.74;100667.47;5070655;28;20064;-70
2024/02/29 09:12:35;;;;;;;9.07;2.28;;;;;;;13.98;96.24;100674.56;5069386;28;20123;-67
2024/02/29 09:15:02;;;;;;;6.60;2.20;;;;;;;14.11;95.81;100673.09;5069885;28;20147;-67
2024/02/29 09:17:28;;;;;;;6.10;2.70;;;;;;;14.19;95.45;100678.31;5076240;28;20455;-67
2024/02/29 09:19:53;;;;;;;5.55;1.55;;;;;;;14.26;94.68;100668.00;5076326;28;20020;-68
2024/02/29 09:22:19;;;;;;;6.85;2.60;;;;;;;14.18;93.04;100670.63;5069354;28;20485;-67
2024/02/29 09:24:45;;;;;;;11.25;2.42;;;;;;;14.23;93.51;100668.34;5070441;28;20090;-67
2024/02/29 09:27:11;;;;;;;8.65;2.03;;;;;;;14.20;89.08;100659.00;5069703;28;20047;-67
2024/02/29 09:29:36;;;;;;;9.90;2.03;;;;;;;14.29;90.20;100660.66;5070489;28;20028;-67
2024/02/29 09:32:03;;;;;;;7.57;2.70;;;;;;;14.37;90.63;100659.00;5069627;28;20078;-67
2024/02/29 09:34:30;;;;;;;8.23;3.20;;;;;;;14.36;90.63;100662.63;5068891;28;20098;-67
2024/02/29 09:36:56;;;;;;;6.40;2.17;;;;;;;14.41;90.65;100660.31;5070209;28;20029;-67
2024/02/29 09:39:21;;;;;;;10.55;2.17;;;;;;;14.43;90.61;100658.38;5067335;28;20036;-67
2024/02/29 09:41:47;;;;;;;7.97;2.92;;;;;;;14.44;88.24;100660.03;5070403;28;20050;-67
2024/02/29 09:44:13;;;;;;;9.68;2.30;;;;;;;14.40;89.74;100661.31;5068023;28;20028;-67
2024/02/29 09:46:42;;;;;;;7.20;2.92;;;;;;;14.50;86.74;100652.31;5070116;28;20477;-67
2024/02/29 09:49:08;;;;;;;9.93;2.35;;;;;;;14.67;83.29;100655.72;5069286;28;20476;-67
2024/02/29 09:51:34;;;;;;;10.98;2.88;;;;;;;14.77;83.67;100640.63;5070258;28;20024;-67
2024/02/29 09:54:02;;;;;;;5.53;2.40;;;;;;;14.74;81.04;100651.44;5067336;28;20489;-67
2024/02/29 09:56:28;;;;;;;7.03;1.95;;;;;;;14.77;81.33;100642.44;5063148;28;20542;-67
2024/02/29 09:58:54;;;;;;;6.53;2.70;;;;;;;14.71;75.95;100641.28;5064432;28;20129;-67
2024/02/29 10:01:19;;;;;;;9.95;3.30;;;;;;;14.71;72.75;100630.81;5064309;28;20042;-66
2024/02/29 10:03:46;;;;;;;9.85;3.10;;;;;;;14.72;73.31;100632.44;5067063;28;20048;-66
2024/02/29 10:06:12;;;;;;;14.77;3.13;;;;;;;14.72;72.63;100632.44;5068852;28;20376;-67
2024/02/29 10:08:40;;;;;;;7.95;3.30;;;;;;;14.78;71.13;100626.53;5069070;28;20143;-67
2024/02/29 10:11:07;;;;;;;7.40;3.33;;;;;;;14.81;70.33;100631.44;5069858;28;20085;-68
2024/02/29 10:13:40;;;;;;;10.52;3.17;;;;;;;14.84;70.65;100625.88;5069400;28;20036;-68
2024/02/29 10:16:08;;;;;;;8.93;3.13;;;;;;;14.94;70.83;100630.94;5069033;28;20551;-68
2024/02/29 10:18:35;;;;;;;11.80;2.92;;;;;;;14.99;71.72;100626.00;5069159;28;20079;-67
2024/02/29 10:21:02;;;;;;;14.13;3.83;;;;;;;15.09;71.69;100607.44;5066284;28;20101;-67
2024/02/29 10:23:30;;;;;;;8.52;3.15;;;;;;;15.05;73.62;100609.56;5069502;28;20106;-68
2024/02/29 10:25:55;;;;;;;11.20;2.95;;;;;;;15.05;69.37;100601.69;5067477;28;20040;-67
2024/02/29 10:28:21;;;;;;;7.30;2.40;;;;;;;15.06;70.82;100602.53;5068256;28;20485;-67
2024/02/29 10:30:51;;;;;;;8.30;2.75;;;;;;;15.13;76.09;100601.66;5069360;28;20029;-67
2024/02/29 10:33:17;;;;;;;6.88;2.50;;;;;;;15.09;78.25;100594.31;5069800;28;20381;-67
2024/02/29 10:35:43;;;;;;;11.23;2.45;;;;;;;15.04;79.73;100604.50;5067820;28;20039;-67
2024/02/29 10:38:09;;;;;;;11.45;3.05;;;;;;;14.97;78.21;100590.41;5073212;28;20037;-67
2024/02/29 10:40:34;;;;;;;13.15;3.55;;;;;;;14.88;80.00;100594.88;5073778;28;20559;-68
2024/02/29 10:43:02;;;;;;;6.18;2.72;;;;;;;14.89;77.86;100597.31;5072578;28;20043;-67
2024/02/29 10:45:29;;;;;;;7.40;3.38;;;;;;;14.97;71.60;100585.16;5071505;28;20036;-67
2024/02/29 10:48:12;;;;;;;12.23;3.35;;;;;;;15.04;71.74;100592.19;5073568;28;20653;-67
2024/02/29 10:50:56;;;;;;;7.75;3.30;;;;;;;15.21;74.80;100588.50;5072890;28;20065;-67
2024/02/29 10:53:32;;;;;;;10.32;3.80;;;;;;;15.44;78.83;100591.16;5072730;28;20376;-69
2024/02/29 10:56:08;;;;;;;9.45;3.35;;;;;;;15.64;77.71;100591.56;5073174;28;20033;-69
2024/02/29 10:58:44;;;;;;;11.13;2.75;;;;;;;15.57;73.28;100591.47;5071828;28;20504;-69
2024/02/29 11:01:12;;;;;;;7.57;2.97;;;;;;;15.53;77.44;100574.38;5072382;28;20041;-69
2024/02/29 11:03:38;;;;;;;12.10;3.33;;;;;;;15.59;78.59;100589.47;5073111;28;20032;-69
2024/02/29 11:06:06;;;;;;;11.20;2.75;;;;;;;15.67;79.61;100577.25;5070804;28;20032;-69
2024/02/29 11:08:32;;;;;;;10.18;2.35;;;;;;;15.66;75.21;100576.44;5072992;28;20028;-70
2024/02/29 11:10:58;;;;;;;4.63;2.30;;;;;;;15.60;77.68;100570.06;5073769;28;20044;-69
2024/02/29 11:13:27;;;;;;;9.85;3.15;;;;;;;15.62;73.47;100576.97;5072748;28;20040;-69